sensor_id;sensor_type;location;lat;lon;timestamp;P1;durP1;ratioP1;P2;durP2;ratioP2
2023;SDS011;1016;48.770;9.154;2023-08-17T00:01:17;27.40;;;6.73;;
2023;SDS011;1016;48.770;9.154;2023-08-17T00:03:42;30.57;;;6.23;;
2023;SDS011;1016;48.770;9.154;2023-08-17T00:06:08;26.33;;;6.10;;
2023;SDS011;1016;48.770;9.154;2023-08-17T00:08:34;27.87;;;6.67;;
2023;SDS011;1016;48.770;9.154;2023-08-17T00:10:59;28.03;;;6.97;;
2023;SDS011;1016;48.770;9.154;2023-08-17T00:13:25;29.60;;;7.67;;
2023;SDS011;1016;48.770;9.154;2023-08-17T00:15:50;32.00;;;7.77;;
2023;SDS011;1016;48.770;9.154;2023-08-17T00:18:16;28.07;;;7.33;;
2023;SDS011;1016;48.770;9.154;2023-08-17T00:20:41;29.10;;;7.40;;
2023;SDS011;1016;48.770;9.154;2023-08-17T00:23:07;27.83;;;7.27;;
2023;SDS011;1016;48.770;9.154;2023-08-17T00:25:32;28.43;;;7.50;;
2023;SDS011;1016;48.770;9.154;2023-08-17T00:27:58;28.57;;;7.80;;
2023;SDS011;1016;48.770;9.154;2023-08-17T00:30:23;27.77;;;7.50;;
2023;SDS011;1016;48.770;9.154;2023-08-17T00:32:49;29.10;;;7.63;;
2023;SDS011;1016;48.770;9.154;2023-08-17T00:35:14;28.23;;;7.07;;
2023;SDS011;1016;48.770;9.154;2023-08-17T00:37:40;27.40;;;7.10;;
2023;SDS011;1016;48.770;9.154;2023-08-17T00:40:05;30.40;;;7.30;;
2023;SDS011;1016;48.770;9.154;2023-08-17T00:42:31;28.27;;;6.90;;
2023;SDS011;1016;48.770;9.154;2023-08-17T00:44:57;28.60;;;6.50;;
2023;SDS011;1016;48.770;9.154;2023-08-17T00:47:23;27.97;;;6.43;;
2023;SDS011;1016;48.770;9.154;2023-08-17T00:49:49;28.00;;;6.60;;
2023;SDS011;1016;48.770;9.154;2023-08-17T00:52:15;27.03;;;6.47;;
2023;SDS011;1016;48.770;9.154;2023-08-17T00:54:40;30.67;;;6.47;;
2023;SDS011;1016;48.770;9.154;2023-08-17T00:57:07;27.80;;;6.40;;
2023;SDS011;1016;48.770;9.154;2023-08-17T00:59:34;28.03;;;6.17;;
2023;SDS011;1016;48.770;9.154;2023-08-17T01:02:00;27.37;;;6.33;;
2023;SDS011;1016;48.770;9.154;2023-08-17T01:04:26;26.90;;;6.23;;
2023;SDS011;1016;48.770;9.154;2023-08-17T01:06:52;27.00;;;6.00;;
2023;SDS011;1016;48.770;9.154;2023-08-17T01:09:17;28.10;;;5.93;;
2023;SDS011;1016;48.770;9.154;2023-08-17T01:11:47;27.97;;;6.47;;
2023;SDS011;1016;48.770;9.154;2023-08-17T01:17:42;29.07;;;6.30;;
2023;SDS011;1016;48.770;9.154;2023-08-17T01:19:51;28.13;;;6.57;;
2023;SDS011;1016;48.770;9.154;2023-08-17T01:22:20;26.70;;;5.57;;
2023;SDS011;1016;48.770;9.154;2023-08-17T01:24:49;29.57;;;6.50;;
2023;SDS011;1016;48.770;9.154;2023-08-17T01:27:22;30.03;;;6.60;;
2023;SDS011;1016;48.770;9.154;2023-08-17T01:29:48;28.60;;;7.37;;
2023;SDS011;1016;48.770;9.154;2023-08-17T01:35:04;32.47;;;9.57;;
2023;SDS011;1016;48.770;9.154;2023-08-17T01:37:41;28.40;;;6.50;;
2023;SDS011;1016;48.770;9.154;2023-08-17T01:40:09;27.70;;;6.20;;
2023;SDS011;1016;48.770;9.154;2023-08-17T01:45:58;29.63;;;6.70;;
2023;SDS011;1016;48.770;9.154;2023-08-17T01:48:24;28.10;;;5.80;;
2023;SDS011;1016;48.770;9.154;2023-08-17T01:50:49;27.87;;;6.10;;
2023;SDS011;1016;48.770;9.154;2023-08-17T01:53:15;29.03;;;6.30;;
2023;SDS011;1016;48.770;9.154;2023-08-17T01:55:40;27.10;;;6.10;;
2023;SDS011;1016;48.770;9.154;2023-08-17T01:58:06;27.47;;;5.77;;
2023;SDS011;1016;48.770;9.154;2023-08-17T02:00:31;26.83;;;6.00;;
2023;SDS011;1016;48.770;9.154;2023-08-17T02:02:57;27.90;;;6.50;;
2023;SDS011;1016;48.770;9.154;2023-08-17T02:05:22;28.33;;;6.43;;
2023;SDS011;1016;48.770;9.154;2023-08-17T02:07:48;27.33;;;6.77;;
2023;SDS011;1016;48.770;9.154;2023-08-17T02:10:13;27.50;;;6.87;;
2023;SDS011;1016;48.770;9.154;2023-08-17T02:12:39;27.20;;;7.00;;
2023;SDS011;1016;48.770;9.154;2023-08-17T02:15:04;27.90;;;7.50;;
2023;SDS011;1016;48.770;9.154;2023-08-17T02:17:30;28.77;;;7.97;;
2023;SDS011;1016;48.770;9.154;2023-08-17T02:19:56;29.67;;;8.23;;
2023;SDS011;1016;48.770;9.154;2023-08-17T02:22:21;29.50;;;8.50;;
2023;SDS011;1016;48.770;9.154;2023-08-17T02:24:47;30.00;;;9.40;;
2023;SDS011;1016;48.770;9.154;2023-08-17T02:27:12;30.60;;;8.70;;
2023;SDS011;1016;48.770;9.154;2023-08-17T02:29:38;28.37;;;7.97;;
2023;SDS011;1016;48.770;9.154;2023-08-17T02:32:04;32.17;;;9.03;;
2023;SDS011;1016;48.770;9.154;2023-08-17T02:34:30;30.00;;;9.70;;
2023;SDS011;1016;48.770;9.154;2023-08-17T02:36:55;31.63;;;8.83;;
2023;SDS011;1016;48.770;9.154;2023-08-17T02:39:21;30.37;;;9.60;;
2023;SDS011;1016;48.770;9.154;2023-08-17T02:41:46;30.63;;;8.90;;
2023;SDS011;1016;48.770;9.154;2023-08-17T02:44:14;32.30;;;9.47;;
2023;SDS011;1016;48.770;9.154;2023-08-17T02:46:39;29.50;;;8.87;;
2023;SDS011;1016;48.770;9.154;2023-08-17T02:49:05;30.93;;;9.57;;
2023;SDS011;1016;48.770;9.154;2023-08-17T02:51:30;33.50;;;10.93;;
2023;SDS011;1016;48.770;9.154;2023-08-17T02:53:56;32.47;;;11.17;;
2023;SDS011;1016;48.770;9.154;2023-08-17T02:56:21;32.70;;;11.00;;
2023;SDS011;1016;48.770;9.154;2023-08-17T02:58:47;32.67;;;11.60;;
2023;SDS011;1016;48.770;9.154;2023-08-17T03:01:12;32.90;;;12.13;;
2023;SDS011;1016;48.770;9.154;2023-08-17T03:03:38;33.63;;;12.30;;
2023;SDS011;1016;48.770;9.154;2023-08-17T03:06:04;33.43;;;12.13;;
2023;SDS011;1016;48.770;9.154;2023-08-17T03:08:30;35.40;;;13.17;;
2023;SDS011;1016;48.770;9.154;2023-08-17T03:10:56;33.80;;;12.57;;
2023;SDS011;1016;48.770;9.154;2023-08-17T03:13:21;34.07;;;12.57;;
2023;SDS011;1016;48.770;9.154;2023-08-17T03:15:47;33.13;;;11.97;;
2023;SDS011;1016;48.770;9.154;2023-08-17T03:18:12;33.20;;;12.17;;
2023;SDS011;1016;48.770;9.154;2023-08-17T03:20:38;32.67;;;11.70;;
2023;SDS011;1016;48.770;9.154;2023-08-17T03:23:03;32.60;;;11.60;;
2023;SDS011;1016;48.770;9.154;2023-08-17T03:25:33;31.00;;;10.67;;
2023;SDS011;1016;48.770;9.154;2023-08-17T03:27:59;33.60;;;11.53;;
2023;SDS011;1016;48.770;9.154;2023-08-17T03:30:25;32.60;;;10.90;;
2023;SDS011;1016;48.770;9.154;2023-08-17T03:32:50;31.43;;;10.67;;
2023;SDS011;1016;48.770;9.154;2023-08-17T03:35:16;32.10;;;12.10;;
2023;SDS011;1016;48.770;9.154;2023-08-17T03:37:42;32.33;;;11.93;;
2023;SDS011;1016;48.770;9.154;2023-08-17T03:40:07;31.97;;;11.63;;
2023;SDS011;1016;48.770;9.154;2023-08-17T03:42:33;32.50;;;12.27;;
2023;SDS011;1016;48.770;9.154;2023-08-17T03:44:58;32.30;;;12.07;;
2023;SDS011;1016;48.770;9.154;2023-08-17T03:47:24;32.73;;;11.90;;
2023;SDS011;1016;48.770;9.154;2023-08-17T03:49:51;32.37;;;11.40;;
2023;SDS011;1016;48.770;9.154;2023-08-17T03:52:16;31.97;;;11.70;;
2023;SDS011;1016;48.770;9.154;2023-08-17T03:54:42;32.70;;;11.17;;
2023;SDS011;1016;48.770;9.154;2023-08-17T03:57:07;32.90;;;10.93;;
2023;SDS011;1016;48.770;9.154;2023-08-17T03:59:33;31.57;;;11.10;;
2023;SDS011;1016;48.770;9.154;2023-08-17T04:01:59;34.10;;;10.60;;
2023;SDS011;1016;48.770;9.154;2023-08-17T04:07:46;31.83;;;10.60;;
2023;SDS011;1016;48.770;9.154;2023-08-17T04:10:12;32.00;;;11.00;;
2023;SDS011;1016;48.770;9.154;2023-08-17T04:12:38;31.13;;;11.00;;
2023;SDS011;1016;48.770;9.154;2023-08-17T04:15:03;31.50;;;10.90;;
2023;SDS011;1016;48.770;9.154;2023-08-17T04:17:29;33.80;;;13.10;;
2023;SDS011;1016;48.770;9.154;2023-08-17T04:19:55;32.90;;;12.00;;
2023;SDS011;1016;48.770;9.154;2023-08-17T04:22:20;32.73;;;12.67;;
2023;SDS011;1016;48.770;9.154;2023-08-17T04:24:45;35.67;;;13.30;;
2023;SDS011;1016;48.770;9.154;2023-08-17T04:27:11;34.90;;;13.20;;
2023;SDS011;1016;48.770;9.154;2023-08-17T04:29:38;36.77;;;13.70;;
2023;SDS011;1016;48.770;9.154;2023-08-17T04:32:04;34.10;;;13.80;;
2023;SDS011;1016;48.770;9.154;2023-08-17T04:34:29;33.67;;;14.00;;
2023;SDS011;1016;48.770;9.154;2023-08-17T04:36:55;35.40;;;14.00;;
2023;SDS011;1016;48.770;9.154;2023-08-17T04:39:20;34.33;;;12.93;;
2023;SDS011;1016;48.770;9.154;2023-08-17T04:41:46;34.03;;;13.60;;
2023;SDS011;1016;48.770;9.154;2023-08-17T04:44:11;36.57;;;15.80;;
2023;SDS011;1016;48.770;9.154;2023-08-17T04:46:37;35.60;;;14.93;;
2023;SDS011;1016;48.770;9.154;2023-08-17T04:49:02;36.60;;;15.43;;
2023;SDS011;1016;48.770;9.154;2023-08-17T04:51:28;37.10;;;16.07;;
2023;SDS011;1016;48.770;9.154;2023-08-17T04:53:54;36.20;;;15.77;;
2023;SDS011;1016;48.770;9.154;2023-08-17T04:56:20;36.43;;;14.70;;
2023;SDS011;1016;48.770;9.154;2023-08-17T04:58:46;36.70;;;14.27;;
2023;SDS011;1016;48.770;9.154;2023-08-17T05:01:11;35.33;;;15.40;;
2023;SDS011;1016;48.770;9.154;2023-08-17T05:03:37;35.20;;;14.87;;
2023;SDS011;1016;48.770;9.154;2023-08-17T05:06:02;35.37;;;14.77;;
2023;SDS011;1016;48.770;9.154;2023-08-17T05:08:28;33.60;;;13.47;;
2023;SDS011;1016;48.770;9.154;2023-08-17T05:10:54;36.07;;;14.30;;
2023;SDS011;1016;48.770;9.154;2023-08-17T05:13:19;34.77;;;13.20;;
2023;SDS011;1016;48.770;9.154;2023-08-17T05:15:45;33.33;;;13.20;;
2023;SDS011;1016;48.770;9.154;2023-08-17T05:18:10;34.00;;;14.07;;
2023;SDS011;1016;48.770;9.154;2023-08-17T05:20:35;33.23;;;13.57;;
2023;SDS011;1016;48.770;9.154;2023-08-17T05:23:01;36.93;;;14.10;;
2023;SDS011;1016;48.770;9.154;2023-08-17T05:25:27;35.10;;;14.93;;
2023;SDS011;1016;48.770;9.154;2023-08-17T05:27:54;33.73;;;14.00;;
2023;SDS011;1016;48.770;9.154;2023-08-17T05:30:19;35.07;;;14.93;;
2023;SDS011;1016;48.770;9.154;2023-08-17T05:32:45;34.57;;;14.40;;
2023;SDS011;1016;48.770;9.154;2023-08-17T05:35:11;34.47;;;13.80;;
2023;SDS011;1016;48.770;9.154;2023-08-17T05:37:36;35.07;;;14.73;;
2023;SDS011;1016;48.770;9.154;2023-08-17T05:40:02;33.33;;;13.67;;
2023;SDS011;1016;48.770;9.154;2023-08-17T05:42:29;34.77;;;13.87;;
2023;SDS011;1016;48.770;9.154;2023-08-17T05:44:55;36.17;;;13.40;;
2023;SDS011;1016;48.770;9.154;2023-08-17T05:47:30;33.80;;;14.37;;
2023;SDS011;1016;48.770;9.154;2023-08-17T05:49:55;34.13;;;13.33;;
2023;SDS011;1016;48.770;9.154;2023-08-17T05:52:21;35.70;;;13.07;;
2023;SDS011;1016;48.770;9.154;2023-08-17T05:54:46;34.60;;;12.90;;
2023;SDS011;1016;48.770;9.154;2023-08-17T05:57:12;32.80;;;12.83;;
2023;SDS011;1016;48.770;9.154;2023-08-17T05:59:37;32.30;;;12.30;;
2023;SDS011;1016;48.770;9.154;2023-08-17T06:02:03;30.60;;;11.43;;
2023;SDS011;1016;48.770;9.154;2023-08-17T06:04:28;32.97;;;12.00;;
2023;SDS011;1016;48.770;9.154;2023-08-17T06:06:54;33.13;;;12.97;;
2023;SDS011;1016;48.770;9.154;2023-08-17T06:09:20;32.67;;;13.37;;
2023;SDS011;1016;48.770;9.154;2023-08-17T06:11:45;33.07;;;12.37;;
2023;SDS011;1016;48.770;9.154;2023-08-17T06:14:11;33.07;;;13.00;;
2023;SDS011;1016;48.770;9.154;2023-08-17T06:16:37;34.40;;;13.10;;
2023;SDS011;1016;48.770;9.154;2023-08-17T06:19:02;32.73;;;12.57;;
2023;SDS011;1016;48.770;9.154;2023-08-17T06:21:28;32.73;;;13.63;;
2023;SDS011;1016;48.770;9.154;2023-08-17T06:23:53;32.70;;;11.10;;
2023;SDS011;1016;48.770;9.154;2023-08-17T06:26:19;35.60;;;13.30;;
2023;SDS011;1016;48.770;9.154;2023-08-17T06:28:44;31.73;;;11.17;;
2023;SDS011;1016;48.770;9.154;2023-08-17T06:31:10;33.43;;;12.93;;
2023;SDS011;1016;48.770;9.154;2023-08-17T06:33:39;31.87;;;11.87;;
2023;SDS011;1016;48.770;9.154;2023-08-17T06:36:04;34.93;;;14.13;;
2023;SDS011;1016;48.770;9.154;2023-08-17T06:38:30;32.13;;;12.33;;
2023;SDS011;1016;48.770;9.154;2023-08-17T06:40:55;32.73;;;13.10;;
2023;SDS011;1016;48.770;9.154;2023-08-17T06:49:30;35.70;;;13.47;;
2023;SDS011;1016;48.770;9.154;2023-08-17T06:51:56;33.93;;;13.83;;
2023;SDS011;1016;48.770;9.154;2023-08-17T06:54:21;34.47;;;15.23;;
2023;SDS011;1016;48.770;9.154;2023-08-17T06:56:47;32.90;;;14.13;;
2023;SDS011;1016;48.770;9.154;2023-08-17T06:59:12;32.87;;;13.80;;
2023;SDS011;1016;48.770;9.154;2023-08-17T07:01:38;35.07;;;12.40;;
2023;SDS011;1016;48.770;9.154;2023-08-17T07:04:03;34.40;;;13.70;;
2023;SDS011;1016;48.770;9.154;2023-08-17T07:06:29;31.83;;;12.53;;
2023;SDS011;1016;48.770;9.154;2023-08-17T07:08:54;33.10;;;13.63;;
2023;SDS011;1016;48.770;9.154;2023-08-17T07:11:20;34.30;;;12.80;;
2023;SDS011;1016;48.770;9.154;2023-08-17T07:13:46;34.17;;;13.20;;
2023;SDS011;1016;48.770;9.154;2023-08-17T07:16:11;34.33;;;13.80;;
2023;SDS011;1016;48.770;9.154;2023-08-17T07:18:37;33.97;;;13.37;;
2023;SDS011;1016;48.770;9.154;2023-08-17T07:21:12;32.77;;;12.80;;
2023;SDS011;1016;48.770;9.154;2023-08-17T07:23:38;31.87;;;12.40;;
2023;SDS011;1016;48.770;9.154;2023-08-17T07:26:03;36.10;;;13.23;;
2023;SDS011;1016;48.770;9.154;2023-08-17T07:28:38;32.07;;;12.57;;
2023;SDS011;1016;48.770;9.154;2023-08-17T08:04:45;29.30;;;9.07;;
2023;SDS011;1016;48.770;9.154;2023-08-17T08:07:11;29.53;;;9.33;;
2023;SDS011;1016;48.770;9.154;2023-08-17T08:09:36;30.33;;;10.60;;
2023;SDS011;1016;48.770;9.154;2023-08-17T08:12:02;31.30;;;11.03;;
2023;SDS011;1016;48.770;9.154;2023-08-17T08:14:28;30.10;;;10.63;;
2023;SDS011;1016;48.770;9.154;2023-08-17T08:16:54;30.30;;;10.10;;
2023;SDS011;1016;48.770;9.154;2023-08-17T08:19:19;31.63;;;11.00;;
2023;SDS011;1016;48.770;9.154;2023-08-17T08:21:45;29.73;;;9.10;;
2023;SDS011;1016;48.770;9.154;2023-08-17T08:24:10;32.10;;;9.10;;
2023;SDS011;1016;48.770;9.154;2023-08-17T08:26:36;31.13;;;11.03;;
2023;SDS011;1016;48.770;9.154;2023-08-17T08:29:01;30.10;;;10.80;;
2023;SDS011;1016;48.770;9.154;2023-08-17T08:31:27;33.20;;;10.87;;
2023;SDS011;1016;48.770;9.154;2023-08-17T08:33:53;32.17;;;11.17;;
2023;SDS011;1016;48.770;9.154;2023-08-17T08:36:19;31.17;;;9.93;;
2023;SDS011;1016;48.770;9.154;2023-08-17T08:38:44;30.40;;;10.00;;
2023;SDS011;1016;48.770;9.154;2023-08-17T08:41:11;28.63;;;8.53;;
2023;SDS011;1016;48.770;9.154;2023-08-17T08:43:36;29.87;;;10.07;;
2023;SDS011;1016;48.770;9.154;2023-08-17T08:46:03;29.47;;;9.17;;
2023;SDS011;1016;48.770;9.154;2023-08-17T08:48:29;28.87;;;8.60;;
2023;SDS011;1016;48.770;9.154;2023-08-17T08:50:59;29.60;;;9.63;;
2023;SDS011;1016;48.770;9.154;2023-08-17T08:53:36;29.80;;;9.00;;
2023;SDS011;1016;48.770;9.154;2023-08-17T08:56:04;29.60;;;9.63;;
2023;SDS011;1016;48.770;9.154;2023-08-17T08:58:32;30.50;;;9.80;;
2023;SDS011;1016;48.770;9.154;2023-08-17T09:01:00;29.30;;;8.80;;
2023;SDS011;1016;48.770;9.154;2023-08-17T09:03:27;29.57;;;9.80;;
2023;SDS011;1016;48.770;9.154;2023-08-17T09:05:53;29.73;;;8.63;;
2023;SDS011;1016;48.770;9.154;2023-08-17T09:08:21;29.50;;;9.10;;
2023;SDS011;1016;48.770;9.154;2023-08-17T09:10:50;29.80;;;8.57;;
2023;SDS011;1016;48.770;9.154;2023-08-17T09:13:15;27.90;;;7.90;;
2023;SDS011;1016;48.770;9.154;2023-08-17T09:15:41;28.53;;;8.17;;
2023;SDS011;1016;48.770;9.154;2023-08-17T09:18:07;30.00;;;7.80;;
2023;SDS011;1016;48.770;9.154;2023-08-17T09:20:43;29.87;;;8.57;;
2023;SDS011;1016;48.770;9.154;2023-08-17T09:23:13;29.00;;;8.23;;
2023;SDS011;1016;48.770;9.154;2023-08-17T09:25:40;29.77;;;7.93;;
2023;SDS011;1016;48.770;9.154;2023-08-17T09:28:07;27.70;;;7.50;;
2023;SDS011;1016;48.770;9.154;2023-08-17T09:30:46;27.90;;;7.40;;
2023;SDS011;1016;48.770;9.154;2023-08-17T09:33:15;27.27;;;7.40;;
2023;SDS011;1016;48.770;9.154;2023-08-17T09:35:41;27.50;;;6.80;;
2023;SDS011;1016;48.770;9.154;2023-08-17T09:38:07;31.07;;;8.00;;
2023;SDS011;1016;48.770;9.154;2023-08-17T09:40:33;29.00;;;7.73;;
2023;SDS011;1016;48.770;9.154;2023-08-17T09:42:58;29.53;;;8.63;;
2023;SDS011;1016;48.770;9.154;2023-08-17T09:45:25;32.40;;;11.30;;
2023;SDS011;1016;48.770;9.154;2023-08-17T09:47:52;29.63;;;9.30;;
2023;SDS011;1016;48.770;9.154;2023-08-17T09:50:21;27.87;;;7.70;;
2023;SDS011;1016;48.770;9.154;2023-08-17T09:52:47;28.05;;;7.70;;
2023;SDS011;1016;48.770;9.154;2023-08-17T09:55:17;28.80;;;8.00;;
2023;SDS011;1016;48.770;9.154;2023-08-17T09:57:42;26.57;;;7.17;;
2023;SDS011;1016;48.770;9.154;2023-08-17T10:00:08;27.30;;;7.57;;
2023;SDS011;1016;48.770;9.154;2023-08-17T10:02:34;27.67;;;7.73;;
2023;SDS011;1016;48.770;9.154;2023-08-17T10:05:00;28.90;;;8.30;;
2023;SDS011;1016;48.770;9.154;2023-08-17T10:07:30;27.17;;;7.23;;
2023;SDS011;1016;48.770;9.154;2023-08-17T10:10:02;28.97;;;7.30;;
2023;SDS011;1016;48.770;9.154;2023-08-17T10:12:30;28.10;;;7.53;;
2023;SDS011;1016;48.770;9.154;2023-08-17T10:15:06;29.50;;;8.00;;
2023;SDS011;1016;48.770;9.154;2023-08-17T10:20:25;30.70;;;9.73;;
2023;SDS011;1016;48.770;9.154;2023-08-17T10:22:56;29.60;;;8.30;;
2023;SDS011;1016;48.770;9.154;2023-08-17T10:25:35;29.67;;;8.80;;
2023;SDS011;1016;48.770;9.154;2023-08-17T10:28:02;29.10;;;8.03;;
2023;SDS011;1016;48.770;9.154;2023-08-17T10:30:29;31.07;;;10.17;;
2023;SDS011;1016;48.770;9.154;2023-08-17T10:32:54;31.17;;;10.70;;
2023;SDS011;1016;48.770;9.154;2023-08-17T10:35:20;31.67;;;12.10;;
2023;SDS011;1016;48.770;9.154;2023-08-17T10:37:46;31.60;;;11.00;;
2023;SDS011;1016;48.770;9.154;2023-08-17T10:40:12;29.90;;;9.10;;
2023;SDS011;1016;48.770;9.154;2023-08-17T10:42:37;30.93;;;9.07;;
2023;SDS011;1016;48.770;9.154;2023-08-17T10:50:36;30.50;;;9.90;;
2023;SDS011;1016;48.770;9.154;2023-08-17T10:53:04;30.87;;;9.33;;
2023;SDS011;1016;48.770;9.154;2023-08-17T10:55:36;29.47;;;8.60;;
2023;SDS011;1016;48.770;9.154;2023-08-17T10:58:04;29.30;;;8.63;;
2023;SDS011;1016;48.770;9.154;2023-08-17T11:00:33;28.20;;;7.97;;
2023;SDS011;1016;48.770;9.154;2023-08-17T11:03:04;28.93;;;8.63;;
2023;SDS011;1016;48.770;9.154;2023-08-17T11:05:43;29.23;;;9.07;;
2023;SDS011;1016;48.770;9.154;2023-08-17T11:08:20;32.27;;;10.03;;
2023;SDS011;1016;48.770;9.154;2023-08-17T11:13:32;29.93;;;8.63;;
2023;SDS011;1016;48.770;9.154;2023-08-17T11:15:59;28.70;;;8.20;;
2023;SDS011;1016;48.770;9.154;2023-08-17T11:18:25;29.37;;;9.40;;
2023;SDS011;1016;48.770;9.154;2023-08-17T11:20:51;33.10;;;9.53;;
2023;SDS011;1016;48.770;9.154;2023-08-17T11:23:17;29.10;;;9.30;;
2023;SDS011;1016;48.770;9.154;2023-08-17T11:25:45;29.60;;;9.47;;
2023;SDS011;1016;48.770;9.154;2023-08-17T11:28:11;30.07;;;9.00;;
2023;SDS011;1016;48.770;9.154;2023-08-17T11:30:39;29.73;;;8.27;;
2023;SDS011;1016;48.770;9.154;2023-08-17T11:33:05;30.30;;;9.30;;
2023;SDS011;1016;48.770;9.154;2023-08-17T11:35:32;34.20;;;14.23;;
2023;SDS011;1016;48.770;9.154;2023-08-17T11:37:59;36.83;;;17.00;;
2023;SDS011;1016;48.770;9.154;2023-08-17T11:40:25;30.50;;;10.33;;
2023;SDS011;1016;48.770;9.154;2023-08-17T11:42:53;31.37;;;10.17;;
2023;SDS011;1016;48.770;9.154;2023-08-17T11:45:19;31.77;;;9.87;;
2023;SDS011;1016;48.770;9.154;2023-08-17T11:47:46;30.40;;;9.20;;
2023;SDS011;1016;48.770;9.154;2023-08-17T11:50:13;29.87;;;8.67;;
2023;SDS011;1016;48.770;9.154;2023-08-17T11:52:39;30.43;;;9.30;;
2023;SDS011;1016;48.770;9.154;2023-08-17T11:55:05;28.40;;;9.43;;
2023;SDS011;1016;48.770;9.154;2023-08-17T11:57:33;29.07;;;8.50;;
2023;SDS011;1016;48.770;9.154;2023-08-17T12:00:00;29.07;;;9.30;;
2023;SDS011;1016;48.770;9.154;2023-08-17T12:02:35;29.80;;;9.80;;
2023;SDS011;1016;48.770;9.154;2023-08-17T12:05:07;30.10;;;9.10;;
2023;SDS011;1016;48.770;9.154;2023-08-17T12:07:36;29.93;;;9.33;;
2023;SDS011;1016;48.770;9.154;2023-08-17T12:10:02;28.97;;;8.80;;
2023;SDS011;1016;48.770;9.154;2023-08-17T12:12:29;31.90;;;9.43;;
2023;SDS011;1016;48.770;9.154;2023-08-17T12:14:56;29.70;;;10.03;;
2023;SDS011;1016;48.770;9.154;2023-08-17T12:17:22;28.90;;;8.43;;
2023;SDS011;1016;48.770;9.154;2023-08-17T12:19:49;29.50;;;9.90;;
2023;SDS011;1016;48.770;9.154;2023-08-17T12:22:16;28.87;;;8.60;;
2023;SDS011;1016;48.770;9.154;2023-08-17T12:24:42;30.10;;;10.60;;
2023;SDS011;1016;48.770;9.154;2023-08-17T12:27:09;30.20;;;9.20;;
2023;SDS011;1016;48.770;9.154;2023-08-17T12:29:46;30.90;;;10.90;;
2023;SDS011;1016;48.770;9.154;2023-08-17T12:32:13;30.70;;;10.20;;
2023;SDS011;1016;48.770;9.154;2023-08-17T12:34:40;30.17;;;10.73;;
2023;SDS011;1016;48.770;9.154;2023-08-17T12:37:08;34.60;;;11.77;;
2023;SDS011;1016;48.770;9.154;2023-08-17T12:39:35;28.63;;;10.07;;
2023;SDS011;1016;48.770;9.154;2023-08-17T12:42:03;30.90;;;10.60;;
2023;SDS011;1016;48.770;9.154;2023-08-17T12:44:30;29.97;;;10.70;;
2023;SDS011;1016;48.770;9.154;2023-08-17T12:46:55;31.40;;;10.17;;
2023;SDS011;1016;48.770;9.154;2023-08-17T12:49:22;29.03;;;9.87;;
2023;SDS011;1016;48.770;9.154;2023-08-17T12:51:48;28.37;;;9.10;;
2023;SDS011;1016;48.770;9.154;2023-08-17T12:54:14;29.50;;;9.60;;
2023;SDS011;1016;48.770;9.154;2023-08-17T12:56:40;30.40;;;9.57;;
2023;SDS011;1016;48.770;9.154;2023-08-17T12:59:05;28.70;;;9.33;;
2023;SDS011;1016;48.770;9.154;2023-08-17T13:01:34;30.67;;;10.40;;
2023;SDS011;1016;48.770;9.154;2023-08-17T13:04:00;37.30;;;19.93;;
2023;SDS011;1016;48.770;9.154;2023-08-17T13:06:26;31.97;;;13.73;;
2023;SDS011;1016;48.770;9.154;2023-08-17T13:08:52;29.77;;;8.87;;
2023;SDS011;1016;48.770;9.154;2023-08-17T13:11:18;30.70;;;8.63;;
2023;SDS011;1016;48.770;9.154;2023-08-17T13:13:44;29.63;;;8.20;;
2023;SDS011;1016;48.770;9.154;2023-08-17T13:16:09;28.50;;;8.20;;
2023;SDS011;1016;48.770;9.154;2023-08-17T13:18:44;31.33;;;8.00;;
2023;SDS011;1016;48.770;9.154;2023-08-17T13:24:24;30.03;;;7.50;;
2023;SDS011;1016;48.770;9.154;2023-08-17T13:26:52;28.20;;;7.40;;
2023;SDS011;1016;48.770;9.154;2023-08-17T13:29:19;32.17;;;8.00;;
2023;SDS011;1016;48.770;9.154;2023-08-17T13:31:47;29.37;;;7.47;;
2023;SDS011;1016;48.770;9.154;2023-08-17T13:34:13;28.87;;;7.97;;
2023;SDS011;1016;48.770;9.154;2023-08-17T13:36:42;28.60;;;8.40;;
2023;SDS011;1016;48.770;9.154;2023-08-17T13:39:13;28.70;;;8.50;;
2023;SDS011;1016;48.770;9.154;2023-08-17T13:41:41;28.27;;;8.10;;
2023;SDS011;1016;48.770;9.154;2023-08-17T13:44:07;28.70;;;8.07;;
2023;SDS011;1016;48.770;9.154;2023-08-17T13:46:38;27.93;;;8.23;;
2023;SDS011;1016;48.770;9.154;2023-08-17T13:49:04;29.27;;;8.70;;
2023;SDS011;1016;48.770;9.154;2023-08-17T13:51:30;29.33;;;8.67;;
2023;SDS011;1016;48.770;9.154;2023-08-17T13:53:58;28.57;;;9.13;;
2023;SDS011;1016;48.770;9.154;2023-08-17T13:57:06;28.37;;;8.10;;
2023;SDS011;1016;48.770;9.154;2023-08-17T13:59:36;27.70;;;8.73;;
2023;SDS011;1016;48.770;9.154;2023-08-17T14:02:02;34.37;;;9.30;;
2023;SDS011;1016;48.770;9.154;2023-08-17T14:04:28;28.37;;;8.50;;
2023;SDS011;1016;48.770;9.154;2023-08-17T14:06:56;29.63;;;9.13;;
2023;SDS011;1016;48.770;9.154;2023-08-17T14:09:24;27.70;;;8.57;;
2023;SDS011;1016;48.770;9.154;2023-08-17T14:11:50;28.20;;;9.00;;
2023;SDS011;1016;48.770;9.154;2023-08-17T14:14:21;30.33;;;9.00;;
2023;SDS011;1016;48.770;9.154;2023-08-17T14:16:47;29.60;;;8.30;;
2023;SDS011;1016;48.770;9.154;2023-08-17T14:19:25;28.47;;;7.90;;
2023;SDS011;1016;48.770;9.154;2023-08-17T14:22:00;27.90;;;8.60;;
2023;SDS011;1016;48.770;9.154;2023-08-17T14:24:29;29.97;;;7.93;;
2023;SDS011;1016;48.770;9.154;2023-08-17T14:27:04;27.17;;;8.17;;
2023;SDS011;1016;48.770;9.154;2023-08-17T14:32:17;28.40;;;8.20;;
2023;SDS011;1016;48.770;9.154;2023-08-17T14:34:43;27.00;;;7.83;;
2023;SDS011;1016;48.770;9.154;2023-08-17T14:37:08;28.40;;;8.50;;
2023;SDS011;1016;48.770;9.154;2023-08-17T14:39:34;29.20;;;9.67;;
2023;SDS011;1016;48.770;9.154;2023-08-17T14:41:59;27.87;;;8.57;;
2023;SDS011;1016;48.770;9.154;2023-08-17T14:44:25;30.30;;;9.50;;
2023;SDS011;1016;48.770;9.154;2023-08-17T14:46:51;29.20;;;9.13;;
2023;SDS011;1016;48.770;9.154;2023-08-17T14:49:16;27.40;;;8.33;;
2023;SDS011;1016;48.770;9.154;2023-08-17T14:51:42;27.70;;;8.50;;
2023;SDS011;1016;48.770;9.154;2023-08-17T14:54:08;27.67;;;8.70;;
2023;SDS011;1016;48.770;9.154;2023-08-17T14:56:34;28.53;;;8.80;;
2023;SDS011;1016;48.770;9.154;2023-08-17T14:58:59;27.87;;;8.50;;
2023;SDS011;1016;48.770;9.154;2023-08-17T15:01:26;29.17;;;8.53;;
2023;SDS011;1016;48.770;9.154;2023-08-17T15:03:52;27.17;;;8.03;;
2023;SDS011;1016;48.770;9.154;2023-08-17T15:06:18;29.03;;;7.93;;
2023;SDS011;1016;48.770;9.154;2023-08-17T15:08:48;27.90;;;8.00;;
2023;SDS011;1016;48.770;9.154;2023-08-17T15:11:14;28.90;;;8.17;;
2023;SDS011;1016;48.770;9.154;2023-08-17T15:13:40;28.17;;;7.20;;
2023;SDS011;1016;48.770;9.154;2023-08-17T15:16:05;27.83;;;8.50;;
2023;SDS011;1016;48.770;9.154;2023-08-17T15:18:32;27.70;;;8.47;;
2023;SDS011;1016;48.770;9.154;2023-08-17T15:20:57;27.47;;;7.70;;
2023;SDS011;1016;48.770;9.154;2023-08-17T15:23:23;28.00;;;7.90;;
2023;SDS011;1016;48.770;9.154;2023-08-17T15:25:49;27.83;;;8.33;;
2023;SDS011;1016;48.770;9.154;2023-08-17T15:28:15;30.23;;;8.07;;
2023;SDS011;1016;48.770;9.154;2023-08-17T15:30:40;30.30;;;7.67;;
2023;SDS011;1016;48.770;9.154;2023-08-17T15:33:06;29.50;;;7.40;;
2023;SDS011;1016;48.770;9.154;2023-08-17T15:35:32;29.90;;;8.70;;
2023;SDS011;1016;48.770;9.154;2023-08-17T15:37:58;28.00;;;7.93;;
2023;SDS011;1016;48.770;9.154;2023-08-17T15:40:24;30.07;;;8.73;;
2023;SDS011;1016;48.770;9.154;2023-08-17T15:42:49;26.23;;;7.20;;
2023;SDS011;1016;48.770;9.154;2023-08-17T15:45:15;27.97;;;8.10;;
2023;SDS011;1016;48.770;9.154;2023-08-17T15:47:43;29.40;;;7.67;;
2023;SDS011;1016;48.770;9.154;2023-08-17T15:50:08;26.97;;;7.60;;
2023;SDS011;1016;48.770;9.154;2023-08-17T15:52:34;30.30;;;8.07;;
2023;SDS011;1016;48.770;9.154;2023-08-17T15:54:59;27.07;;;7.87;;
2023;SDS011;1016;48.770;9.154;2023-08-17T15:57:25;27.83;;;8.17;;
2023;SDS011;1016;48.770;9.154;2023-08-17T15:59:51;27.47;;;7.97;;
2023;SDS011;1016;48.770;9.154;2023-08-17T16:02:17;28.20;;;8.17;;